Pagrindinis puslapis
METAR-TAF:

METAR-TAF

Oro uostai :

Malabas, Pusiaujo Gvinėja

platuma: 03-45-18N, ilguma: 08-42-31E, Aukštis: 23 m

Dabartinis oras

Ataskaita buvo paskelbta 27 minutes, ne 21:00 UTC
Vėjas 5 kt iš Vakarų/Pietvakarių
Temperatūra 26°C
Drėgmė 84%
Slėgis 1010 hPa
Matomumas 10 km arba daugiau
Mažai debesys ne aukštis 1000 ft

METAR: FGSL 172100Z 25005KT 9999 FEW010 26/23 Q1010 NOSIG

Laikas: 22:27 (21:27 UTC)

Prognozė

Ataskaita buvo paskelbta 4 valandos ir 27 minutes, ne 17:00 UTC
Prognozė galioja nuo 17 metu 18 UTC su 18 metu 24 UTC
Vėjas 8 kt iš Vakarų
Matomumas 10 km arba daugiau
Išsisklaidę debesys ne aukštis 1300 ft
Mažai debesys ne aukštis 2000 ft, Liūtiniai kamuoliniai debesys.
Tikimybė 30% :
Laikinai
nuo 18 metu 06 UTC su 18 metu 12 UTC
perkūnija

TAF: FGSL 171700Z 1718/1824 26008KT 9999 SCT013 FEW020CB PROB30 TEMPO 1806/1812 TS

Orai ataskaitas ir orų prognozės (METAR, TAF).

turimą stotys yra geltonos ir raudonos taškus žemėlapyje.

Perkelti pele per norėdami pamatyti stoties vardą.

Tada spustelėkite, norėdami matyti oro stebėjimo ir prognozės.

Norėdami pakeisti žemėlapį: spustelėkite ant žalios mygtukų su juodo kryžiaus žemyn,; žalią mygtuką su brūkšneliu, jei norite nutolinti; arba žalių rodyklių gretimoms žemėlapius.


METAR-TAF: